sensor_id;sensor_type;location;lat;lon;timestamp;temperature;humidity
8342;DHT22;4208;49.406;10.788;2022-09-09T00:01:07;14.10;99.90
8342;DHT22;4208;49.406;10.788;2022-09-09T00:03:42;14.10;99.90
8342;DHT22;4208;49.406;10.788;2022-09-09T00:06:20;14.10;99.90
8342;DHT22;4208;49.406;10.788;2022-09-09T00:08:59;14.10;99.90
8342;DHT22;4208;49.406;10.788;2022-09-09T00:11:36;14.00;99.90
8342;DHT22;4208;49.406;10.788;2022-09-09T00:14:15;14.00;99.90
8342;DHT22;4208;49.406;10.788;2022-09-09T00:16:53;14.00;99.90
8342;DHT22;4208;49.406;10.788;2022-09-09T00:19:24;13.90;99.90
8342;DHT22;4208;49.406;10.788;2022-09-09T00:22:04;13.90;99.90
8342;DHT22;4208;49.406;10.788;2022-09-09T00:24:38;13.90;99.90
8342;DHT22;4208;49.406;10.788;2022-09-09T00:27:19;13.90;99.90
8342;DHT22;4208;49.406;10.788;2022-09-09T00:29:53;13.80;99.90
8342;DHT22;4208;49.406;10.788;2022-09-09T00:32:28;13.80;99.90
8342;DHT22;4208;49.406;10.788;2022-09-09T00:35:02;13.80;99.90
8342;DHT22;4208;49.406;10.788;2022-09-09T00:37:33;13.80;99.90
8342;DHT22;4208;49.406;10.788;2022-09-09T00:40:08;13.80;99.90
8342;DHT22;4208;49.406;10.788;2022-09-09T00:42:44;13.70;99.90
8342;DHT22;4208;49.406;10.788;2022-09-09T00:45:26;13.70;99.90
8342;DHT22;4208;49.406;10.788;2022-09-09T00:48:05;13.70;99.90
8342;DHT22;4208;49.406;10.788;2022-09-09T00:50:44;13.60;99.90
8342;DHT22;4208;49.406;10.788;2022-09-09T00:53:29;13.60;99.90
8342;DHT22;4208;49.406;10.788;2022-09-09T00:56:09;13.60;99.90
8342;DHT22;4208;49.406;10.788;2022-09-09T00:58:42;13.60;99.90
8342;DHT22;4208;49.406;10.788;2022-09-09T01:01:12;13.60;99.90
8342;DHT22;4208;49.406;10.788;2022-09-09T01:03:45;13.60;99.90
8342;DHT22;4208;49.406;10.788;2022-09-09T01:06:16;13.60;99.90
8342;DHT22;4208;49.406;10.788;2022-09-09T01:09:04;13.60;99.90
8342;DHT22;4208;49.406;10.788;2022-09-09T01:11:43;13.60;99.90
8342;DHT22;4208;49.406;10.788;2022-09-09T01:14:24;13.50;99.90
8342;DHT22;4208;49.406;10.788;2022-09-09T01:16:58;13.50;99.90
8342;DHT22;4208;49.406;10.788;2022-09-09T01:19:40;13.40;99.90
8342;DHT22;4208;49.406;10.788;2022-09-09T01:22:22;13.40;99.90
8342;DHT22;4208;49.406;10.788;2022-09-09T01:25:15;13.40;99.90
8342;DHT22;4208;49.406;10.788;2022-09-09T01:28:00;13.30;99.90
8342;DHT22;4208;49.406;10.788;2022-09-09T01:30:33;13.30;99.90
8342;DHT22;4208;49.406;10.788;2022-09-09T01:33:03;13.30;99.90
8342;DHT22;4208;49.406;10.788;2022-09-09T01:35:40;13.30;99.90
8342;DHT22;4208;49.406;10.788;2022-09-09T01:38:12;13.30;99.90
8342;DHT22;4208;49.406;10.788;2022-09-09T01:40:42;13.30;99.90
8342;DHT22;4208;49.406;10.788;2022-09-09T01:43:13;13.30;99.90
8342;DHT22;4208;49.406;10.788;2022-09-09T01:45:42;13.30;99.90
8342;DHT22;4208;49.406;10.788;2022-09-09T01:48:13;13.30;99.90
8342;DHT22;4208;49.406;10.788;2022-09-09T01:50:51;13.30;99.90
8342;DHT22;4208;49.406;10.788;2022-09-09T01:53:21;13.30;99.90
8342;DHT22;4208;49.406;10.788;2022-09-09T01:55:58;13.30;99.90
8342;DHT22;4208;49.406;10.788;2022-09-09T01:58:42;13.30;99.90
8342;DHT22;4208;49.406;10.788;2022-09-09T02:01:21;13.30;99.90
8342;DHT22;4208;49.406;10.788;2022-09-09T02:03:54;13.30;99.90
8342;DHT22;4208;49.406;10.788;2022-09-09T02:06:29;13.20;99.90
8342;DHT22;4208;49.406;10.788;2022-09-09T02:09:07;13.20;99.90
8342;DHT22;4208;49.406;10.788;2022-09-09T02:11:42;13.20;99.90
8342;DHT22;4208;49.406;10.788;2022-09-09T02:14:25;13.30;99.90
8342;DHT22;4208;49.406;10.788;2022-09-09T02:16:57;13.30;99.90
8342;DHT22;4208;49.406;10.788;2022-09-09T02:19:43;13.30;99.90
8342;DHT22;4208;49.406;10.788;2022-09-09T02:22:26;13.30;99.90
8342;DHT22;4208;49.406;10.788;2022-09-09T02:24:58;13.30;99.90
8342;DHT22;4208;49.406;10.788;2022-09-09T02:27:29;13.30;99.90
8342;DHT22;4208;49.406;10.788;2022-09-09T02:30:01;13.20;99.90
8342;DHT22;4208;49.406;10.788;2022-09-09T02:32:46;13.20;99.90
8342;DHT22;4208;49.406;10.788;2022-09-09T02:35:19;13.20;99.90
8342;DHT22;4208;49.406;10.788;2022-09-09T02:37:51;13.20;99.90
8342;DHT22;4208;49.406;10.788;2022-09-09T02:40:20;13.20;99.90
8342;DHT22;4208;49.406;10.788;2022-09-09T02:42:56;13.20;99.90
8342;DHT22;4208;49.406;10.788;2022-09-09T02:45:36;13.20;99.90
8342;DHT22;4208;49.406;10.788;2022-09-09T02:48:11;13.20;99.90
8342;DHT22;4208;49.406;10.788;2022-09-09T02:50:51;13.20;99.90
8342;DHT22;4208;49.406;10.788;2022-09-09T02:53:33;13.20;99.90
8342;DHT22;4208;49.406;10.788;2022-09-09T02:56:10;13.20;99.90
8342;DHT22;4208;49.406;10.788;2022-09-09T02:58:43;13.20;99.90
8342;DHT22;4208;49.406;10.788;2022-09-09T03:01:14;13.10;99.90
8342;DHT22;4208;49.406;10.788;2022-09-09T03:03:45;13.20;99.90
8342;DHT22;4208;49.406;10.788;2022-09-09T03:06:16;13.20;99.90
8342;DHT22;4208;49.406;10.788;2022-09-09T03:08:49;13.30;99.90
8342;DHT22;4208;49.406;10.788;2022-09-09T03:11:24;13.20;99.90
8342;DHT22;4208;49.406;10.788;2022-09-09T03:13:52;13.20;99.90
8342;DHT22;4208;49.406;10.788;2022-09-09T03:16:25;13.30;99.90
8342;DHT22;4208;49.406;10.788;2022-09-09T03:18:54;13.20;99.90
8342;DHT22;4208;49.406;10.788;2022-09-09T03:21:23;13.20;99.90
8342;DHT22;4208;49.406;10.788;2022-09-09T03:23:52;13.20;99.90
8342;DHT22;4208;49.406;10.788;2022-09-09T03:26:20;13.30;99.90
8342;DHT22;4208;49.406;10.788;2022-09-09T03:28:50;13.30;99.90
8342;DHT22;4208;49.406;10.788;2022-09-09T03:31:22;13.30;99.90
8342;DHT22;4208;49.406;10.788;2022-09-09T03:33:53;13.20;99.90
8342;DHT22;4208;49.406;10.788;2022-09-09T03:36:21;13.30;99.90
8342;DHT22;4208;49.406;10.788;2022-09-09T03:38:50;13.30;99.90
8342;DHT22;4208;49.406;10.788;2022-09-09T03:41:19;13.30;99.90
8342;DHT22;4208;49.406;10.788;2022-09-09T03:43:48;13.30;99.90
8342;DHT22;4208;49.406;10.788;2022-09-09T03:46:17;13.30;99.90
8342;DHT22;4208;49.406;10.788;2022-09-09T03:48:46;13.30;99.90
8342;DHT22;4208;49.406;10.788;2022-09-09T03:51:16;13.40;99.90
8342;DHT22;4208;49.406;10.788;2022-09-09T03:53:46;13.30;99.90
8342;DHT22;4208;49.406;10.788;2022-09-09T03:56:15;13.30;99.90
8342;DHT22;4208;49.406;10.788;2022-09-09T03:58:45;13.30;99.90
8342;DHT22;4208;49.406;10.788;2022-09-09T04:01:14;13.20;99.90
8342;DHT22;4208;49.406;10.788;2022-09-09T04:03:45;13.20;99.90
8342;DHT22;4208;49.406;10.788;2022-09-09T04:06:18;13.20;99.90
8342;DHT22;4208;49.406;10.788;2022-09-09T04:08:48;13.20;99.90
8342;DHT22;4208;49.406;10.788;2022-09-09T04:11:19;13.20;99.90
8342;DHT22;4208;49.406;10.788;2022-09-09T04:13:50;13.20;99.90
8342;DHT22;4208;49.406;10.788;2022-09-09T04:16:19;13.20;99.90
8342;DHT22;4208;49.406;10.788;2022-09-09T04:18:48;13.20;99.90
8342;DHT22;4208;49.406;10.788;2022-09-09T04:21:19;13.20;99.90
8342;DHT22;4208;49.406;10.788;2022-09-09T04:23:49;13.10;99.90
8342;DHT22;4208;49.406;10.788;2022-09-09T04:26:19;13.00;99.90
8342;DHT22;4208;49.406;10.788;2022-09-09T04:28:48;13.00;99.90
8342;DHT22;4208;49.406;10.788;2022-09-09T04:31:20;13.00;99.90
8342;DHT22;4208;49.406;10.788;2022-09-09T04:33:53;13.00;99.90
8342;DHT22;4208;49.406;10.788;2022-09-09T04:36:24;13.00;99.90
8342;DHT22;4208;49.406;10.788;2022-09-09T04:38:57;12.90;99.90
8342;DHT22;4208;49.406;10.788;2022-09-09T04:41:26;12.90;99.90
8342;DHT22;4208;49.406;10.788;2022-09-09T04:43:55;12.90;99.90
8342;DHT22;4208;49.406;10.788;2022-09-09T04:46:24;12.90;99.90
8342;DHT22;4208;49.406;10.788;2022-09-09T04:48:52;12.80;99.90
8342;DHT22;4208;49.406;10.788;2022-09-09T04:51:28;12.80;99.90
8342;DHT22;4208;49.406;10.788;2022-09-09T04:53:58;12.80;99.90
8342;DHT22;4208;49.406;10.788;2022-09-09T04:56:27;12.80;99.90
8342;DHT22;4208;49.406;10.788;2022-09-09T04:58:58;12.70;99.90
8342;DHT22;4208;49.406;10.788;2022-09-09T05:01:36;12.70;99.90
8342;DHT22;4208;49.406;10.788;2022-09-09T05:04:05;12.70;99.90
8342;DHT22;4208;49.406;10.788;2022-09-09T05:06:36;12.70;99.90
8342;DHT22;4208;49.406;10.788;2022-09-09T05:09:05;12.70;99.90
8342;DHT22;4208;49.406;10.788;2022-09-09T05:11:34;12.70;99.90
8342;DHT22;4208;49.406;10.788;2022-09-09T05:14:23;12.70;99.90
8342;DHT22;4208;49.406;10.788;2022-09-09T05:16:51;12.70;99.90
8342;DHT22;4208;49.406;10.788;2022-09-09T05:19:22;12.60;99.90
8342;DHT22;4208;49.406;10.788;2022-09-09T05:21:54;12.60;99.90
8342;DHT22;4208;49.406;10.788;2022-09-09T05:24:29;12.70;99.90
8342;DHT22;4208;49.406;10.788;2022-09-09T05:27:00;12.70;99.90
8342;DHT22;4208;49.406;10.788;2022-09-09T05:29:30;12.70;99.90
8342;DHT22;4208;49.406;10.788;2022-09-09T05:32:03;12.70;99.90
8342;DHT22;4208;49.406;10.788;2022-09-09T05:34:32;12.80;99.90
8342;DHT22;4208;49.406;10.788;2022-09-09T05:37:02;12.80;99.90
8342;DHT22;4208;49.406;10.788;2022-09-09T05:39:32;12.90;99.90
8342;DHT22;4208;49.406;10.788;2022-09-09T05:42:02;12.90;99.90
8342;DHT22;4208;49.406;10.788;2022-09-09T05:44:33;12.90;99.90
8342;DHT22;4208;49.406;10.788;2022-09-09T05:47:02;12.90;99.90
8342;DHT22;4208;49.406;10.788;2022-09-09T05:49:31;12.90;99.90
8342;DHT22;4208;49.406;10.788;2022-09-09T05:52:00;12.90;99.90
8342;DHT22;4208;49.406;10.788;2022-09-09T05:54:32;12.90;99.90
8342;DHT22;4208;49.406;10.788;2022-09-09T05:57:01;12.90;99.90
8342;DHT22;4208;49.406;10.788;2022-09-09T05:59:29;12.80;99.90
8342;DHT22;4208;49.406;10.788;2022-09-09T06:02:00;12.80;99.90
8342;DHT22;4208;49.406;10.788;2022-09-09T06:04:34;12.80;99.90
8342;DHT22;4208;49.406;10.788;2022-09-09T06:07:04;12.80;99.90
8342;DHT22;4208;49.406;10.788;2022-09-09T06:09:35;12.80;99.90
8342;DHT22;4208;49.406;10.788;2022-09-09T06:12:04;12.90;99.90
8342;DHT22;4208;49.406;10.788;2022-09-09T06:14:36;12.90;99.90
8342;DHT22;4208;49.406;10.788;2022-09-09T06:17:09;13.00;99.90
8342;DHT22;4208;49.406;10.788;2022-09-09T06:19:38;13.00;99.90
8342;DHT22;4208;49.406;10.788;2022-09-09T06:22:07;13.10;99.90
8342;DHT22;4208;49.406;10.788;2022-09-09T06:24:42;13.20;99.90
8342;DHT22;4208;49.406;10.788;2022-09-09T06:27:12;13.30;99.90
8342;DHT22;4208;49.406;10.788;2022-09-09T06:29:42;13.40;99.90
8342;DHT22;4208;49.406;10.788;2022-09-09T06:32:10;13.50;99.90
8342;DHT22;4208;49.406;10.788;2022-09-09T06:34:40;13.60;99.90
8342;DHT22;4208;49.406;10.788;2022-09-09T06:37:10;13.70;99.90
8342;DHT22;4208;49.406;10.788;2022-09-09T06:39:45;13.90;99.90
8342;DHT22;4208;49.406;10.788;2022-09-09T06:42:14;14.00;99.90
8342;DHT22;4208;49.406;10.788;2022-09-09T06:44:55;14.10;99.90
8342;DHT22;4208;49.406;10.788;2022-09-09T06:47:42;14.20;99.90
8342;DHT22;4208;49.406;10.788;2022-09-09T06:50:10;14.30;99.90
8342;DHT22;4208;49.406;10.788;2022-09-09T06:52:39;14.40;99.90
8342;DHT22;4208;49.406;10.788;2022-09-09T06:55:11;14.60;99.90
8342;DHT22;4208;49.406;10.788;2022-09-09T06:57:41;14.70;99.90
8342;DHT22;4208;49.406;10.788;2022-09-09T07:00:15;14.80;99.90
8342;DHT22;4208;49.406;10.788;2022-09-09T07:02:44;14.80;99.90
8342;DHT22;4208;49.406;10.788;2022-09-09T07:05:13;14.90;99.90
8342;DHT22;4208;49.406;10.788;2022-09-09T07:07:44;15.10;99.90
8342;DHT22;4208;49.406;10.788;2022-09-09T07:10:17;15.20;99.90
8342;DHT22;4208;49.406;10.788;2022-09-09T07:12:50;15.50;99.90
8342;DHT22;4208;49.406;10.788;2022-09-09T07:15:20;15.60;99.90
8342;DHT22;4208;49.406;10.788;2022-09-09T07:17:50;15.80;99.90
8342;DHT22;4208;49.406;10.788;2022-09-09T07:20:21;15.90;99.90
8342;DHT22;4208;49.406;10.788;2022-09-09T07:22:54;16.20;99.90
8342;DHT22;4208;49.406;10.788;2022-09-09T07:25:25;16.30;99.90
8342;DHT22;4208;49.406;10.788;2022-09-09T07:27:56;16.40;99.90
8342;DHT22;4208;49.406;10.788;2022-09-09T07:30:25;16.50;99.90
8342;DHT22;4208;49.406;10.788;2022-09-09T07:32:55;16.70;99.90
8342;DHT22;4208;49.406;10.788;2022-09-09T07:35:26;16.80;99.90
8342;DHT22;4208;49.406;10.788;2022-09-09T07:37:55;16.90;99.90
8342;DHT22;4208;49.406;10.788;2022-09-09T07:40:26;17.10;99.90
8342;DHT22;4208;49.406;10.788;2022-09-09T07:42:54;17.40;99.90
8342;DHT22;4208;49.406;10.788;2022-09-09T07:45:23;17.60;99.90
8342;DHT22;4208;49.406;10.788;2022-09-09T07:47:52;17.70;99.90
8342;DHT22;4208;49.406;10.788;2022-09-09T07:50:21;17.90;99.90
8342;DHT22;4208;49.406;10.788;2022-09-09T07:52:51;18.00;99.90
8342;DHT22;4208;49.406;10.788;2022-09-09T07:55:20;18.10;99.90
8342;DHT22;4208;49.406;10.788;2022-09-09T07:57:55;18.20;99.90
8342;DHT22;4208;49.406;10.788;2022-09-09T08:00:24;18.30;99.90
8342;DHT22;4208;49.406;10.788;2022-09-09T08:02:57;18.60;99.90
8342;DHT22;4208;49.406;10.788;2022-09-09T08:05:26;18.80;99.90
8342;DHT22;4208;49.406;10.788;2022-09-09T08:07:55;19.00;99.90
8342;DHT22;4208;49.406;10.788;2022-09-09T08:10:24;19.20;99.90
8342;DHT22;4208;49.406;10.788;2022-09-09T08:12:56;19.30;99.50
8342;DHT22;4208;49.406;10.788;2022-09-09T08:15:44;19.30;99.10
8342;DHT22;4208;49.406;10.788;2022-09-09T08:18:13;19.40;98.40
8342;DHT22;4208;49.406;10.788;2022-09-09T08:20:43;19.40;98.10
8342;DHT22;4208;49.406;10.788;2022-09-09T08:23:12;19.40;98.40
8342;DHT22;4208;49.406;10.788;2022-09-09T08:25:41;19.40;97.90
8342;DHT22;4208;49.406;10.788;2022-09-09T08:28:11;19.40;98.30
8342;DHT22;4208;49.406;10.788;2022-09-09T08:30:40;19.50;98.20
8342;DHT22;4208;49.406;10.788;2022-09-09T08:33:09;19.70;97.40
8342;DHT22;4208;49.406;10.788;2022-09-09T08:35:38;19.90;97.10
8342;DHT22;4208;49.406;10.788;2022-09-09T08:38:06;20.00;96.90
8342;DHT22;4208;49.406;10.788;2022-09-09T08:40:43;20.30;96.20
8342;DHT22;4208;49.406;10.788;2022-09-09T08:43:19;20.50;95.90
8342;DHT22;4208;49.406;10.788;2022-09-09T08:45:55;20.60;94.60
8342;DHT22;4208;49.406;10.788;2022-09-09T08:48:40;20.40;94.50
8342;DHT22;4208;49.406;10.788;2022-09-09T08:51:13;20.40;94.70
8342;DHT22;4208;49.406;10.788;2022-09-09T08:53:46;20.30;93.90
8342;DHT22;4208;49.406;10.788;2022-09-09T08:56:21;20.30;94.00
8342;DHT22;4208;49.406;10.788;2022-09-09T08:58:55;20.30;94.00
8342;DHT22;4208;49.406;10.788;2022-09-09T09:01:50;20.30;94.10
8342;DHT22;4208;49.406;10.788;2022-09-09T09:04:37;20.40;94.00
8342;DHT22;4208;49.406;10.788;2022-09-09T09:07:18;20.50;93.30
8342;DHT22;4208;49.406;10.788;2022-09-09T09:09:57;20.60;93.90
8342;DHT22;4208;49.406;10.788;2022-09-09T09:12:41;20.60;93.40
8342;DHT22;4208;49.406;10.788;2022-09-09T09:15:19;20.60;93.20
8342;DHT22;4208;49.406;10.788;2022-09-09T09:17:50;20.70;93.40
8342;DHT22;4208;49.406;10.788;2022-09-09T09:20:26;20.90;92.70
8342;DHT22;4208;49.406;10.788;2022-09-09T09:23:01;21.00;92.50
8342;DHT22;4208;49.406;10.788;2022-09-09T09:25:35;21.00;92.20
8342;DHT22;4208;49.406;10.788;2022-09-09T09:28:13;21.00;92.30
8342;DHT22;4208;49.406;10.788;2022-09-09T09:30:52;21.00;91.20
8342;DHT22;4208;49.406;10.788;2022-09-09T09:33:26;21.00;91.20
8342;DHT22;4208;49.406;10.788;2022-09-09T09:35:57;20.90;91.50
8342;DHT22;4208;49.406;10.788;2022-09-09T09:38:28;20.90;91.40
8342;DHT22;4208;49.406;10.788;2022-09-09T09:41:29;20.80;92.10
8342;DHT22;4208;49.406;10.788;2022-09-09T09:43:58;20.80;91.40
8342;DHT22;4208;49.406;10.788;2022-09-09T09:46:31;21.00;91.10
8342;DHT22;4208;49.406;10.788;2022-09-09T09:49:09;21.10;90.90
8342;DHT22;4208;49.406;10.788;2022-09-09T09:51:40;21.30;91.10
8342;DHT22;4208;49.406;10.788;2022-09-09T09:54:15;21.60;90.90
8342;DHT22;4208;49.406;10.788;2022-09-09T09:56:51;22.10;89.90
8342;DHT22;4208;49.406;10.788;2022-09-09T09:59:22;22.60;86.70
8342;DHT22;4208;49.406;10.788;2022-09-09T10:02:20;22.70;88.50
8342;DHT22;4208;49.406;10.788;2022-09-09T10:05:01;22.60;87.90
8342;DHT22;4208;49.406;10.788;2022-09-09T10:07:32;22.90;85.40
8342;DHT22;4208;49.406;10.788;2022-09-09T10:10:01;23.10;85.50
8342;DHT22;4208;49.406;10.788;2022-09-09T10:12:41;23.00;85.40
8342;DHT22;4208;49.406;10.788;2022-09-09T10:15:29;22.90;86.10
8342;DHT22;4208;49.406;10.788;2022-09-09T10:18:18;22.80;85.10
8342;DHT22;4208;49.406;10.788;2022-09-09T10:20:56;22.60;85.50
8342;DHT22;4208;49.406;10.788;2022-09-09T10:23:39;22.60;84.80
8342;DHT22;4208;49.406;10.788;2022-09-09T10:26:22;22.50;84.70
8342;DHT22;4208;49.406;10.788;2022-09-09T10:29:08;22.60;85.00
8342;DHT22;4208;49.406;10.788;2022-09-09T10:31:48;22.50;84.40
8342;DHT22;4208;49.406;10.788;2022-09-09T10:34:37;22.40;84.50
8342;DHT22;4208;49.406;10.788;2022-09-09T10:37:16;22.40;85.50
8342;DHT22;4208;49.406;10.788;2022-09-09T10:39:54;22.50;86.30
8342;DHT22;4208;49.406;10.788;2022-09-09T10:42:31;22.90;85.00
8342;DHT22;4208;49.406;10.788;2022-09-09T10:45:07;23.30;81.20
8342;DHT22;4208;49.406;10.788;2022-09-09T10:48:04;23.50;79.90
8342;DHT22;4208;49.406;10.788;2022-09-09T10:50:53;23.70;81.30
8342;DHT22;4208;49.406;10.788;2022-09-09T10:53:36;23.90;80.20
8342;DHT22;4208;49.406;10.788;2022-09-09T10:56:08;23.90;78.10
8342;DHT22;4208;49.406;10.788;2022-09-09T10:58:42;23.80;78.10
8342;DHT22;4208;49.406;10.788;2022-09-09T11:01:17;23.60;78.10
8342;DHT22;4208;49.406;10.788;2022-09-09T11:03:53;23.30;78.30
8342;DHT22;4208;49.406;10.788;2022-09-09T11:06:31;22.90;79.00
8342;DHT22;4208;49.406;10.788;2022-09-09T11:09:02;22.70;80.10
8342;DHT22;4208;49.406;10.788;2022-09-09T11:11:36;22.50;79.60
8342;DHT22;4208;49.406;10.788;2022-09-09T11:14:14;22.40;79.80
8342;DHT22;4208;49.406;10.788;2022-09-09T11:16:47;22.20;81.80
8342;DHT22;4208;49.406;10.788;2022-09-09T11:19:25;22.10;82.40
8342;DHT22;4208;49.406;10.788;2022-09-09T11:21:57;22.00;81.70
8342;DHT22;4208;49.406;10.788;2022-09-09T11:24:29;21.90;81.70
8342;DHT22;4208;49.406;10.788;2022-09-09T11:27:05;21.80;82.50
8342;DHT22;4208;49.406;10.788;2022-09-09T11:35:52;21.60;82.00
8342;DHT22;4208;49.406;10.788;2022-09-09T11:38:27;21.60;82.20
8342;DHT22;4208;49.406;10.788;2022-09-09T11:40:58;21.60;82.50
8342;DHT22;4208;49.406;10.788;2022-09-09T11:43:30;21.50;82.80
8342;DHT22;4208;49.406;10.788;2022-09-09T11:46:02;21.50;82.90
8342;DHT22;4208;49.406;10.788;2022-09-09T11:48:35;21.70;82.90
8342;DHT22;4208;49.406;10.788;2022-09-09T11:51:07;22.00;83.00
8342;DHT22;4208;49.406;10.788;2022-09-09T11:53:52;22.50;83.90
8342;DHT22;4208;49.406;10.788;2022-09-09T11:56:26;23.00;84.00
8342;DHT22;4208;49.406;10.788;2022-09-09T11:58:58;23.50;79.70
8342;DHT22;4208;49.406;10.788;2022-09-09T12:01:39;24.10;77.70
8342;DHT22;4208;49.406;10.788;2022-09-09T12:04:26;24.40;77.10
8342;DHT22;4208;49.406;10.788;2022-09-09T12:06:59;24.80;74.80
8342;DHT22;4208;49.406;10.788;2022-09-09T12:09:44;24.90;72.30
8342;DHT22;4208;49.406;10.788;2022-09-09T12:12:26;24.90;72.60
8342;DHT22;4208;49.406;10.788;2022-09-09T12:15:02;24.90;74.50
8342;DHT22;4208;49.406;10.788;2022-09-09T12:17:37;24.60;73.00
8342;DHT22;4208;49.406;10.788;2022-09-09T12:20:14;24.30;75.30
8342;DHT22;4208;49.406;10.788;2022-09-09T12:23:00;23.90;76.80
8342;DHT22;4208;49.406;10.788;2022-09-09T12:25:42;23.40;77.70
8342;DHT22;4208;49.406;10.788;2022-09-09T12:28:17;23.10;78.50
8342;DHT22;4208;49.406;10.788;2022-09-09T12:30:54;22.90;78.20
8342;DHT22;4208;49.406;10.788;2022-09-09T12:33:33;22.80;79.20
8342;DHT22;4208;49.406;10.788;2022-09-09T12:36:03;22.60;80.30
8342;DHT22;4208;49.406;10.788;2022-09-09T12:38:36;22.10;81.30
8342;DHT22;4208;49.406;10.788;2022-09-09T12:41:18;21.40;89.80
8342;DHT22;4208;49.406;10.788;2022-09-09T12:43:47;20.60;91.70
8342;DHT22;4208;49.406;10.788;2022-09-09T12:46:23;20.00;93.10
8342;DHT22;4208;49.406;10.788;2022-09-09T12:48:55;19.50;95.00
8342;DHT22;4208;49.406;10.788;2022-09-09T12:51:27;18.80;96.50
8342;DHT22;4208;49.406;10.788;2022-09-09T12:53:57;18.50;97.70
8342;DHT22;4208;49.406;10.788;2022-09-09T12:56:30;18.30;98.40
8342;DHT22;4208;49.406;10.788;2022-09-09T12:58:59;18.20;99.40
8342;DHT22;4208;49.406;10.788;2022-09-09T13:01:30;18.40;99.90
8342;DHT22;4208;49.406;10.788;2022-09-09T13:04:00;18.90;99.90
8342;DHT22;4208;49.406;10.788;2022-09-09T13:06:30;19.30;99.90
8342;DHT22;4208;49.406;10.788;2022-09-09T13:09:01;19.60;99.90
8342;DHT22;4208;49.406;10.788;2022-09-09T13:11:36;20.00;99.90
8342;DHT22;4208;49.406;10.788;2022-09-09T13:14:14;20.10;99.90
8342;DHT22;4208;49.406;10.788;2022-09-09T13:16:55;20.40;99.90
8342;DHT22;4208;49.406;10.788;2022-09-09T13:19:25;20.60;99.90
8342;DHT22;4208;49.406;10.788;2022-09-09T13:21:56;20.70;99.90
8342;DHT22;4208;49.406;10.788;2022-09-09T13:24:31;20.80;99.90
8342;DHT22;4208;49.406;10.788;2022-09-09T13:27:03;20.70;99.90
8342;DHT22;4208;49.406;10.788;2022-09-09T13:29:32;20.70;99.90
8342;DHT22;4208;49.406;10.788;2022-09-09T13:32:05;20.60;99.90
8342;DHT22;4208;49.406;10.788;2022-09-09T13:34:35;20.60;99.90
8342;DHT22;4208;49.406;10.788;2022-09-09T13:37:06;20.50;99.90
8342;DHT22;4208;49.406;10.788;2022-09-09T13:39:37;20.50;99.90
8342;DHT22;4208;49.406;10.788;2022-09-09T13:42:23;20.40;99.90
8342;DHT22;4208;49.406;10.788;2022-09-09T13:44:55;20.30;99.90
8342;DHT22;4208;49.406;10.788;2022-09-09T13:47:29;20.30;99.90
8342;DHT22;4208;49.406;10.788;2022-09-09T13:49:58;20.20;99.90
8342;DHT22;4208;49.406;10.788;2022-09-09T13:52:37;20.10;99.90
8342;DHT22;4208;49.406;10.788;2022-09-09T13:55:09;20.10;99.90
8342;DHT22;4208;49.406;10.788;2022-09-09T13:57:39;20.20;99.90
8342;DHT22;4208;49.406;10.788;2022-09-09T14:00:10;20.20;99.90
8342;DHT22;4208;49.406;10.788;2022-09-09T14:02:39;20.10;99.90
8342;DHT22;4208;49.406;10.788;2022-09-09T14:05:08;20.10;99.90
8342;DHT22;4208;49.406;10.788;2022-09-09T14:07:38;20.10;99.90
8342;DHT22;4208;49.406;10.788;2022-09-09T14:10:08;20.00;99.90
8342;DHT22;4208;49.406;10.788;2022-09-09T14:12:38;20.00;99.90
8342;DHT22;4208;49.406;10.788;2022-09-09T14:15:09;20.00;99.90
8342;DHT22;4208;49.406;10.788;2022-09-09T14:17:38;20.00;99.90
8342;DHT22;4208;49.406;10.788;2022-09-09T14:20:08;20.00;99.90
8342;DHT22;4208;49.406;10.788;2022-09-09T14:22:37;19.90;99.90
8342;DHT22;4208;49.406;10.788;2022-09-09T14:25:07;20.00;99.90
8342;DHT22;4208;49.406;10.788;2022-09-09T14:27:36;20.00;99.90
8342;DHT22;4208;49.406;10.788;2022-09-09T14:30:09;19.90;99.90
8342;DHT22;4208;49.406;10.788;2022-09-09T14:32:38;19.80;99.90
8342;DHT22;4208;49.406;10.788;2022-09-09T14:35:07;19.60;99.90
8342;DHT22;4208;49.406;10.788;2022-09-09T14:37:36;19.40;99.90
8342;DHT22;4208;49.406;10.788;2022-09-09T14:40:06;19.30;99.90
8342;DHT22;4208;49.406;10.788;2022-09-09T14:42:36;19.20;99.90
8342;DHT22;4208;49.406;10.788;2022-09-09T14:45:05;19.20;99.90
8342;DHT22;4208;49.406;10.788;2022-09-09T14:47:36;19.10;99.80
8342;DHT22;4208;49.406;10.788;2022-09-09T14:50:06;19.10;99.90
8342;DHT22;4208;49.406;10.788;2022-09-09T14:52:35;19.00;99.90
8342;DHT22;4208;49.406;10.788;2022-09-09T14:55:05;19.00;99.70
8342;DHT22;4208;49.406;10.788;2022-09-09T14:57:34;19.00;99.90
8342;DHT22;4208;49.406;10.788;2022-09-09T15:00:04;19.00;99.90
8342;DHT22;4208;49.406;10.788;2022-09-09T15:02:33;19.00;99.90
8342;DHT22;4208;49.406;10.788;2022-09-09T15:05:04;19.00;99.90
8342;DHT22;4208;49.406;10.788;2022-09-09T15:07:33;19.00;99.90
8342;DHT22;4208;49.406;10.788;2022-09-09T15:10:03;18.90;99.90
8342;DHT22;4208;49.406;10.788;2022-09-09T15:12:32;18.90;99.90
8342;DHT22;4208;49.406;10.788;2022-09-09T15:15:03;18.90;99.60
8342;DHT22;4208;49.406;10.788;2022-09-09T15:17:32;19.00;99.60
8342;DHT22;4208;49.406;10.788;2022-09-09T15:20:01;19.10;99.20
8342;DHT22;4208;49.406;10.788;2022-09-09T15:22:31;19.30;99.00
8342;DHT22;4208;49.406;10.788;2022-09-09T15:25:01;19.50;98.20
8342;DHT22;4208;49.406;10.788;2022-09-09T15:27:29;19.80;98.30
8342;DHT22;4208;49.406;10.788;2022-09-09T15:29:58;19.90;95.00
8342;DHT22;4208;49.406;10.788;2022-09-09T15:32:28;20.00;94.60
8342;DHT22;4208;49.406;10.788;2022-09-09T15:34:57;20.10;94.50
8342;DHT22;4208;49.406;10.788;2022-09-09T15:37:26;20.10;94.50
8342;DHT22;4208;49.406;10.788;2022-09-09T15:39:56;20.00;93.10
8342;DHT22;4208;49.406;10.788;2022-09-09T15:42:26;19.90;92.70
8342;DHT22;4208;49.406;10.788;2022-09-09T15:44:55;19.80;93.20
8342;DHT22;4208;49.406;10.788;2022-09-09T15:47:24;19.70;92.90
8342;DHT22;4208;49.406;10.788;2022-09-09T15:49:53;19.60;93.60
8342;DHT22;4208;49.406;10.788;2022-09-09T15:52:21;19.50;93.90
8342;DHT22;4208;49.406;10.788;2022-09-09T15:54:50;19.50;94.70
8342;DHT22;4208;49.406;10.788;2022-09-09T15:57:20;19.50;94.90
8342;DHT22;4208;49.406;10.788;2022-09-09T15:59:49;19.50;95.00
8342;DHT22;4208;49.406;10.788;2022-09-09T16:02:18;19.50;95.10
8342;DHT22;4208;49.406;10.788;2022-09-09T16:04:46;19.70;95.20
8342;DHT22;4208;49.406;10.788;2022-09-09T16:07:15;19.80;96.10
8342;DHT22;4208;49.406;10.788;2022-09-09T16:09:44;19.90;95.50
8342;DHT22;4208;49.406;10.788;2022-09-09T16:12:13;20.00;94.70
8342;DHT22;4208;49.406;10.788;2022-09-09T16:14:43;20.10;95.20
8342;DHT22;4208;49.406;10.788;2022-09-09T16:17:12;20.10;94.80
8342;DHT22;4208;49.406;10.788;2022-09-09T16:19:41;20.30;92.20
8342;DHT22;4208;49.406;10.788;2022-09-09T16:22:10;20.30;92.60
8342;DHT22;4208;49.406;10.788;2022-09-09T16:24:38;20.40;92.30
8342;DHT22;4208;49.406;10.788;2022-09-09T16:27:07;20.40;92.50
8342;DHT22;4208;49.406;10.788;2022-09-09T16:29:36;20.40;92.70